Kermit, West Virginia
Current Conditions -  °F | °C
As of 1:15 AM on Wednesday 22 Oct 2014 (Local Time) from KSJS Reporting Station
Overcast Overcast  
Wind Chill: 46°   Ceiling: 4100
Heat Index: 46°   Visibility: 10mi
Dew Point: 41°   Wind: 3mph
Humidity: 84%   Direction: 10°N
Pressure: 30.12"   Gusts: NA
Location:  37.84°N, 82.41°W
Report Text: KSJS 220515Z AUTO 01003KT 10SM OVC041 08/05 A3012 RMK AO2 T00770051
Loading
Personal Weather Stations






























Interactive Weather Map
Tropical Storm Tracking
New forecast layout! Learn more

10-Day Weather Forecast

Advertisements
Track Severe Weather on mobile